KHSP/HSP METAR and TAF weather

Enter ICAO airport designator
Station Type Date Time Source
KHSP METAR 2019/04/24 15:55 UTC NOAA

KHSP 241555Z AUTO 28014G21KT 10SM BKN019 OVC025 17/14 A3002 RMK AO2 T01710135


Station Type Date Time Source
KHSP Decoded METAR 2019/04/24 15:55 UTC NOAA

Hot Springs / Ingalls, VA, United States (KHSP) 37-57N 079-50W
Apr 24, 2019 - 11:55 AM EDT / 2019.04.24 1555 UTC
Wind: from the W (280 degrees) at 16 MPH (14 KT) gusting to 24 MPH (21 KT):0
Visibility: 10 mile(s):0
Sky conditions: overcast
Temperature: 62.8 F (17.1 C)
Dew Point: 56.3 F (13.5 C)
Relative Humidity: 79%
Pressure (altimeter): 30.02 in. Hg (1016 hPa)
ob: KHSP 241555Z AUTO 28014G21KT 10SM BKN019 OVC025 17/14 A3002 RMK AO2 T01710135
cycle: 16

Station Type Date Time Source
KHSP TAF UTC NOAA

Error!

Example: see airport list